Hamoir, Belgium
Current Conditions -  °F | °C
As of 4:50 AM on Tuesday 23 Dec 2014 (Local Time) from EBLG Reporting Station
Broken Clouds Broken Clouds  
Wind Chill: 50°   Ceiling: 2400
Heat Index: 50°   Visibility: 6mi
Dew Point: 45°   Wind: 18mph
Humidity: 82%   Direction: 240°WSW
Pressure: 30.15"   Gusts: NA
Location:  50.43°N, 5.53°E
Report Text: EBLG 230350Z 24016KT 9999 SCT018 BKN024 10/07 Q1021 NOSIG
Loading
Personal Weather Stations






























Interactive Weather Map New forecast layout! Learn more

10-Day Weather Forecast

Advertisements
Track Severe Weather on mobile